createdAt,value
2022-08-14T00:01:46.243Z,90.24
2022-08-14T00:04:36.004Z,91.81
2022-08-14T00:07:11.061Z,91.46
2022-08-14T00:09:55.900Z,93.46
2022-08-14T00:12:33.807Z,91.30
2022-08-14T00:15:10.957Z,90.72
2022-08-14T00:17:48.406Z,90.43
2022-08-14T00:20:31.156Z,90.21
2022-08-14T00:23:16.995Z,90.33
2022-08-14T00:25:53.851Z,91.10
2022-08-14T00:28:35.068Z,92.25
2022-08-14T00:31:03.654Z,93.02
2022-08-14T00:33:51.184Z,94.66
2022-08-14T00:36:37.228Z,96.29
2022-08-14T00:39:09.593Z,98.21
2022-08-14T00:41:38.794Z,95.03
2022-08-14T00:44:06.640Z,96.40
2022-08-14T00:46:33.843Z,96.60
2022-08-14T00:49:00.868Z,98.32
2022-08-14T00:51:34.453Z,99.49
2022-08-14T00:54:04.421Z,99.98
2022-08-14T00:56:37.718Z,100.00
2022-08-14T00:59:05.629Z,98.70
2022-08-14T01:01:33.603Z,96.59
2022-08-14T01:04:06.101Z,95.80
2022-08-14T01:06:34.232Z,95.94
2022-08-14T01:09:02.361Z,94.73
2022-08-14T01:11:57.114Z,94.96
2022-08-14T01:14:29.246Z,95.87
2022-08-14T01:16:56.362Z,95.91
2022-08-14T01:19:43.615Z,96.99
2022-08-14T01:22:12.724Z,95.43
2022-08-14T01:24:43.563Z,94.82
2022-08-14T01:27:19.470Z,95.92
2022-08-14T01:29:58.680Z,95.76
2022-08-14T01:32:30.487Z,96.11
2022-08-14T01:35:18.068Z,99.57
2022-08-14T01:37:56.227Z,100.00
2022-08-14T01:40:33.285Z,100.00
2022-08-14T01:43:15.632Z,100.00
2022-08-14T01:45:48.749Z,100.00
2022-08-14T01:48:16.071Z,100.00
2022-08-14T01:50:47.727Z,100.00
2022-08-14T01:53:15.391Z,100.00
2022-08-14T01:55:42.582Z,100.00
2022-08-14T01:58:19.800Z,100.00
2022-08-14T02:00:55.122Z,100.00
2022-08-14T02:03:24.475Z,100.00
2022-08-14T02:06:03.988Z,100.00
2022-08-14T02:08:53.167Z,100.00
2022-08-14T02:11:23.850Z,100.00
2022-08-14T02:14:07.412Z,100.00
2022-08-14T02:16:44.331Z,100.00
2022-08-14T02:19:15.662Z,100.00
2022-08-14T02:21:49.070Z,100.00
2022-08-14T02:24:40.341Z,100.00
2022-08-14T02:28:24.310Z,100.00
2022-08-14T02:30:01.225Z,100.00
2022-08-14T02:32:37.182Z,100.00
2022-08-14T02:35:10.195Z,100.00
2022-08-14T02:37:47.109Z,100.00
2022-08-14T02:40:20.541Z,100.00
2022-08-14T02:43:00.600Z,100.00
2022-08-14T02:45:38.201Z,100.00
2022-08-14T02:49:01.842Z,100.00
2022-08-14T02:51:00.972Z,100.00
2022-08-14T02:53:33.481Z,100.00
2022-08-14T02:56:02.680Z,100.00
2022-08-14T02:58:34.339Z,100.00
2022-08-14T03:01:05.858Z,100.00
2022-08-14T03:03:38.908Z,100.00
2022-08-14T03:06:08.997Z,100.00
2022-08-14T03:08:37.766Z,100.00
2022-08-14T03:11:10.576Z,100.00
2022-08-14T03:13:39.501Z,100.00
2022-08-14T03:16:26.518Z,100.00
2022-08-14T03:18:56.313Z,100.00
2022-08-14T03:21:30.870Z,100.00
2022-08-14T03:24:22.915Z,100.00
2022-08-14T03:26:57.527Z,100.00
2022-08-14T03:29:26.382Z,100.00
2022-08-14T03:31:53.742Z,100.00
2022-08-14T03:34:24.566Z,100.00
2022-08-14T03:37:39.395Z,100.00
2022-08-14T03:39:57.211Z,100.00
2022-08-14T03:42:25.241Z,100.00
2022-08-14T03:45:26.875Z,100.00
2022-08-14T03:47:56.091Z,100.00
2022-08-14T03:50:30.744Z,100.00
2022-08-14T03:53:02.842Z,100.00
2022-08-14T03:55:30.891Z,100.00
2022-08-14T03:58:00.466Z,100.00
2022-08-14T04:00:43.821Z,100.00
2022-08-14T04:03:18.001Z,100.00
2022-08-14T04:05:49.053Z,100.00
2022-08-14T04:08:29.867Z,100.00
2022-08-14T04:11:01.211Z,100.00
2022-08-14T04:13:32.068Z,100.00
2022-08-14T04:16:10.321Z,100.00
2022-08-14T04:18:43.799Z,100.00
2022-08-14T04:21:11.759Z,100.00
2022-08-14T04:23:39.727Z,100.00
2022-08-14T04:26:14.623Z,100.00
2022-08-14T04:29:01.629Z,100.00
2022-08-14T04:33:01.502Z,100.00
2022-08-14T04:34:24.246Z,100.00
2022-08-14T04:37:13.000Z,100.00
2022-08-14T04:39:58.800Z,100.00
2022-08-14T04:42:47.604Z,100.00
2022-08-14T04:45:20.873Z,100.00
2022-08-14T04:48:05.931Z,100.00
2022-08-14T04:50:44.741Z,100.00
2022-08-14T04:53:26.240Z,100.00
2022-08-14T04:56:01.264Z,100.00
2022-08-14T04:58:33.031Z,100.00
2022-08-14T05:01:06.087Z,100.00
2022-08-14T05:03:39.841Z,100.00
2022-08-14T05:06:38.840Z,100.00
2022-08-14T05:08:57.284Z,100.00
2022-08-14T05:11:27.357Z,100.00
2022-08-14T05:14:42.747Z,100.00
2022-08-14T05:16:44.088Z,100.00
2022-08-14T05:19:18.471Z,100.00
2022-08-14T05:22:15.582Z,100.00
2022-08-14T05:24:43.126Z,100.00
2022-08-14T05:27:11.788Z,100.00
2022-08-14T05:29:38.415Z,100.00
2022-08-14T05:32:07.450Z,100.00
2022-08-14T05:34:34.487Z,100.00
2022-08-14T05:37:02.943Z,100.00
2022-08-14T05:39:33.542Z,100.00
2022-08-14T05:42:00.976Z,100.00
2022-08-14T05:44:36.782Z,100.00
2022-08-14T05:47:04.346Z,100.00
2022-08-14T05:49:33.637Z,100.00
2022-08-14T05:52:02.346Z,100.00
2022-08-14T05:54:35.306Z,100.00
2022-08-14T05:57:03.517Z,100.00
2022-08-14T05:59:38.620Z,100.00
2022-08-14T06:02:11.048Z,100.00
2022-08-14T06:04:39.356Z,100.00
2022-08-14T06:07:06.355Z,100.00
2022-08-14T06:09:35.554Z,100.00
2022-08-14T06:12:08.586Z,100.00
2022-08-14T06:14:36.245Z,100.00
2022-08-14T06:17:04.370Z,100.00
2022-08-14T06:19:31.305Z,100.00
2022-08-14T06:21:59.519Z,100.00
2022-08-14T06:24:30.427Z,100.00
2022-08-14T06:27:04.810Z,100.00
2022-08-14T06:29:36.435Z,100.00
2022-08-14T06:32:38.413Z,100.00
2022-08-14T06:35:09.122Z,100.00
2022-08-14T06:37:49.876Z,100.00
2022-08-14T06:40:26.870Z,100.00
2022-08-14T06:43:03.030Z,100.00
2022-08-14T06:45:31.781Z,100.00
2022-08-14T06:48:00.170Z,100.00
2022-08-14T06:50:30.229Z,100.00
2022-08-14T06:52:58.555Z,100.00
2022-08-14T06:55:26.486Z,100.00
2022-08-14T06:57:55.352Z,100.00
2022-08-14T07:00:27.073Z,100.00
2022-08-14T07:03:15.339Z,100.00
2022-08-14T07:05:55.456Z,100.00
2022-08-14T07:08:29.733Z,100.00
2022-08-14T07:11:01.133Z,100.00
2022-08-14T07:13:28.552Z,96.39
2022-08-14T07:15:58.921Z,94.36
2022-08-14T07:18:29.898Z,94.13
2022-08-14T07:20:59.037Z,91.72
2022-08-14T07:23:26.533Z,86.44
2022-08-14T07:25:58.709Z,88.21
2022-08-14T07:28:28.235Z,84.23
2022-08-14T07:31:04.590Z,82.39
2022-08-14T07:33:41.653Z,78.92
2022-08-14T07:36:26.518Z,78.75
2022-08-14T07:38:56.590Z,76.63
2022-08-14T07:41:23.550Z,75.91
2022-08-14T07:43:55.230Z,72.62
2022-08-14T07:46:28.148Z,69.55
2022-08-14T07:48:59.394Z,67.54
2022-08-14T07:51:34.508Z,67.61
2022-08-14T07:54:09.737Z,66.43
2022-08-14T07:56:47.738Z,65.81
2022-08-14T07:59:18.324Z,64.04
2022-08-14T08:01:51.122Z,64.41
2022-08-14T08:04:24.118Z,62.49
2022-08-14T08:06:53.149Z,61.43
2022-08-14T08:09:24.937Z,60.52
2022-08-14T08:12:01.748Z,61.88
2022-08-14T08:14:56.103Z,61.51
2022-08-14T08:17:23.491Z,61.23
2022-08-14T08:19:51.476Z,59.54
2022-08-14T08:22:21.156Z,58.14
2022-08-14T08:24:50.514Z,58.01
2022-08-14T08:27:21.433Z,58.72
2022-08-14T08:29:50.690Z,57.35
2022-08-14T08:32:18.438Z,57.18
2022-08-14T08:34:46.995Z,54.40
2022-08-14T08:37:14.915Z,53.24
2022-08-14T08:40:02.595Z,52.97
2022-08-14T08:42:38.888Z,52.42
2022-08-14T08:45:14.674Z,52.12
2022-08-14T08:47:44.095Z,50.03
2022-08-14T08:53:04.291Z,47.51
2022-08-14T08:55:34.006Z,47.63
2022-08-14T08:58:04.494Z,47.75
2022-08-14T09:00:34.515Z,45.74
2022-08-14T09:03:05.983Z,44.23
2022-08-14T09:05:35.778Z,43.78
2022-08-14T09:08:30.559Z,43.11
2022-08-14T09:10:59.512Z,41.67
2022-08-14T09:13:27.302Z,40.43
2022-08-14T09:15:57.562Z,40.15
2022-08-14T09:18:24.412Z,40.02
2022-08-14T09:20:54.932Z,39.30
2022-08-14T09:23:34.456Z,39.09
2022-08-14T09:26:02.015Z,39.68
2022-08-14T09:28:31.863Z,37.44
2022-08-14T09:31:04.118Z,37.42
2022-08-14T09:34:27.323Z,36.35
2022-08-14T09:37:09.703Z,36.46
2022-08-14T09:40:05.866Z,35.72
2022-08-14T09:42:55.470Z,34.59
2022-08-14T09:45:39.726Z,34.72
2022-08-14T09:48:18.468Z,34.56
2022-08-14T09:50:48.534Z,33.92
2022-08-14T09:53:34.197Z,34.83
2022-08-14T09:56:24.251Z,35.03
2022-08-14T09:59:00.213Z,33.45
2022-08-14T10:01:36.572Z,33.93
2022-08-14T10:04:26.994Z,34.30
2022-08-14T10:07:03.740Z,33.60
2022-08-14T10:09:33.631Z,32.91
2022-08-14T10:12:05.368Z,32.99
2022-08-14T10:14:36.742Z,31.94
2022-08-14T10:17:06.253Z,32.54
2022-08-14T10:19:36.486Z,32.65
2022-08-14T10:23:14.764Z,33.31
2022-08-14T10:24:54.717Z,32.24
2022-08-14T10:27:26.608Z,33.01
2022-08-14T10:30:00.751Z,33.60
2022-08-14T10:32:39.956Z,33.49
2022-08-14T10:35:14.766Z,32.75
2022-08-14T10:37:52.603Z,33.31
2022-08-14T10:40:44.335Z,32.27
2022-08-14T10:43:27.589Z,32.65
2022-08-14T10:46:21.910Z,31.37
2022-08-14T10:49:06.364Z,32.30
2022-08-14T10:51:41.942Z,31.45
2022-08-14T10:54:26.010Z,31.04
2022-08-14T10:56:59.067Z,31.73
2022-08-14T10:59:30.995Z,32.27
2022-08-14T11:02:02.236Z,32.92
2022-08-14T11:04:30.527Z,32.14
2022-08-14T11:06:57.862Z,31.16
2022-08-14T11:09:26.462Z,31.64
2022-08-14T11:12:34.447Z,30.84
2022-08-14T11:14:59.234Z,30.34
2022-08-14T11:17:32.027Z,30.50
2022-08-14T11:20:02.445Z,30.78
2022-08-14T11:22:56.153Z,30.49
2022-08-14T11:25:19.391Z,29.87
2022-08-14T11:27:47.090Z,29.82
2022-08-14T11:30:50.458Z,29.69
2022-08-14T11:33:09.150Z,29.95
2022-08-14T11:35:47.651Z,29.22
2022-08-14T11:38:19.894Z,29.85
2022-08-14T11:40:47.726Z,29.66
2022-08-14T11:43:16.219Z,29.52
2022-08-14T11:45:48.549Z,29.60
2022-08-14T11:49:01.938Z,29.12
2022-08-14T11:51:23.731Z,30.05
2022-08-14T11:54:13.719Z,29.61
2022-08-14T11:56:49.895Z,29.95
2022-08-14T11:59:26.406Z,29.32
2022-08-14T12:03:00.878Z,28.76
2022-08-14T12:04:57.692Z,28.15
2022-08-14T12:07:24.833Z,28.92
2022-08-14T12:09:57.192Z,29.05
2022-08-14T12:12:36.087Z,29.00
2022-08-14T12:15:06.857Z,29.39
2022-08-14T12:17:49.598Z,29.39
2022-08-14T12:20:30.232Z,29.42
2022-08-14T12:23:01.475Z,28.53
2022-08-14T12:25:29.107Z,28.50
2022-08-14T12:27:59.389Z,27.93
2022-08-14T12:30:40.036Z,27.97
2022-08-14T12:33:33.820Z,28.58
2022-08-14T12:36:05.515Z,28.42
2022-08-14T12:38:36.464Z,28.20
2022-08-14T12:41:10.333Z,28.83
2022-08-14T12:43:54.030Z,28.06
2022-08-14T12:46:28.552Z,27.93
2022-08-14T12:48:57.671Z,28.30
2022-08-14T12:51:27.494Z,28.11
2022-08-14T12:53:59.346Z,28.31
2022-08-14T12:56:33.323Z,28.08
2022-08-14T12:59:03.216Z,28.59
2022-08-14T13:01:59.862Z,28.60
2022-08-14T13:04:21.754Z,28.97
2022-08-14T13:06:50.741Z,29.27
2022-08-14T13:09:18.464Z,29.18
2022-08-14T13:11:59.113Z,28.57
2022-08-14T13:14:38.686Z,28.11
2022-08-14T13:17:06.121Z,27.29
2022-08-14T13:19:35.428Z,28.12
2022-08-14T13:22:10.237Z,28.21
2022-08-14T13:24:47.942Z,27.38
2022-08-14T13:27:15.793Z,27.94
2022-08-14T13:29:47.398Z,27.44
2022-08-14T13:32:14.938Z,27.86
2022-08-14T13:34:43.644Z,27.62
2022-08-14T13:37:14.589Z,27.07
2022-08-14T13:39:56.117Z,27.55
2022-08-14T13:42:23.507Z,27.24
2022-08-14T13:44:55.239Z,27.12
2022-08-14T13:47:30.422Z,27.79
2022-08-14T13:50:02.629Z,28.05
2022-08-14T13:52:52.137Z,28.09
2022-08-14T13:55:27.992Z,28.33
2022-08-14T13:58:02.931Z,28.10
2022-08-14T14:00:35.766Z,27.56
2022-08-14T14:03:20.168Z,27.49
2022-08-14T14:05:52.797Z,27.90
2022-08-14T14:08:45.651Z,27.84
2022-08-14T14:11:16.036Z,27.81
2022-08-14T14:13:45.364Z,27.64
2022-08-14T14:16:14.906Z,27.09
2022-08-14T14:18:48.848Z,27.01
2022-08-14T14:21:26.408Z,27.31
2022-08-14T14:23:56.381Z,27.80
2022-08-14T14:26:24.927Z,27.56
2022-08-14T14:28:56.505Z,27.20
2022-08-14T14:31:29.700Z,27.44
2022-08-14T14:34:07.337Z,27.92
2022-08-14T14:36:43.913Z,27.33
2022-08-14T14:39:11.143Z,27.79
2022-08-14T14:41:43.757Z,28.05
2022-08-14T14:44:13.586Z,28.01
2022-08-14T14:46:49.436Z,27.64
2022-08-14T14:49:21.981Z,28.20
2022-08-14T14:51:52.895Z,28.86
2022-08-14T14:54:31.520Z,28.74
2022-08-14T14:57:00.481Z,28.45
2022-08-14T14:59:33.612Z,28.25
2022-08-14T15:02:06.253Z,28.57
2022-08-14T15:04:38.782Z,28.83
2022-08-14T15:07:10.761Z,29.09
2022-08-14T15:09:41.949Z,28.37
2022-08-14T15:12:34.555Z,28.15
2022-08-14T15:14:58.045Z,28.74
2022-08-14T15:17:28.552Z,28.64
2022-08-14T15:20:11.113Z,28.79
2022-08-14T15:22:50.909Z,28.95
2022-08-14T15:25:18.643Z,28.73
2022-08-14T15:27:49.959Z,28.06
2022-08-14T15:30:24.343Z,28.72
2022-08-14T15:32:59.090Z,28.75
2022-08-14T15:35:29.719Z,28.64
2022-08-14T15:38:10.568Z,29.21
2022-08-14T15:40:51.518Z,28.69
2022-08-14T15:43:25.379Z,28.18
2022-08-14T15:45:56.111Z,28.81
2022-08-14T15:48:23.349Z,28.49
2022-08-14T15:50:50.844Z,28.68
2022-08-14T15:53:22.219Z,29.22
2022-08-14T15:55:54.455Z,29.52
2022-08-14T15:58:23.206Z,29.49
2022-08-14T16:01:09.990Z,29.01
2022-08-14T16:03:40.892Z,29.05
2022-08-14T16:06:15.559Z,29.57
2022-08-14T16:08:50.122Z,29.25
2022-08-14T16:11:26.136Z,28.82
2022-08-14T16:13:57.478Z,28.76
2022-08-14T16:16:34.802Z,28.42
2022-08-14T16:19:19.641Z,28.88
2022-08-14T16:22:01.240Z,28.42
2022-08-14T16:24:33.162Z,27.24
2022-08-14T16:27:01.397Z,26.96
2022-08-14T16:29:34.480Z,26.17
2022-08-14T16:32:35.856Z,26.38
2022-08-14T16:34:55.897Z,26.00
2022-08-14T16:37:30.572Z,26.11
2022-08-14T16:40:01.388Z,27.14
2022-08-14T16:42:39.807Z,27.43
2022-08-14T16:45:25.179Z,28.11
2022-08-14T16:47:53.287Z,29.21
2022-08-14T16:50:43.143Z,28.85
2022-08-14T16:53:07.428Z,28.64
2022-08-14T16:55:53.363Z,28.20
2022-08-14T16:58:27.128Z,27.33
2022-08-14T17:01:16.546Z,26.53
2022-08-14T17:03:59.198Z,26.93
2022-08-14T17:06:47.363Z,26.87
2022-08-14T17:09:32.089Z,27.20
2022-08-14T17:12:07.523Z,26.52
2022-08-14T17:15:01.514Z,27.22
2022-08-14T17:17:40.092Z,27.76
2022-08-14T17:20:33.964Z,27.61
2022-08-14T17:22:59.754Z,28.07
2022-08-14T17:25:37.081Z,27.82
2022-08-14T17:28:51.329Z,28.55
2022-08-14T17:31:09.249Z,28.85
2022-08-14T17:33:40.885Z,29.21
2022-08-14T17:36:24.160Z,29.51
2022-08-14T17:39:11.854Z,29.13
2022-08-14T17:42:02.753Z,29.45
2022-08-14T17:44:45.485Z,29.47
2022-08-14T17:47:14.693Z,30.29
2022-08-14T17:49:51.712Z,30.31
2022-08-14T17:52:34.195Z,31.12
2022-08-14T17:55:02.852Z,30.78
2022-08-14T17:57:40.668Z,30.87
2022-08-14T18:00:11.342Z,31.05
2022-08-14T18:02:39.867Z,31.18
2022-08-14T18:05:18.226Z,31.33
2022-08-14T18:08:33.201Z,31.21
2022-08-14T18:10:55.804Z,31.64
2022-08-14T18:13:50.354Z,31.80
2022-08-14T18:16:20.188Z,31.56
2022-08-14T18:18:51.022Z,31.90
2022-08-14T18:21:24.223Z,32.31
2022-08-14T18:24:28.011Z,32.18
2022-08-14T18:27:08.911Z,32.38
2022-08-14T18:29:43.492Z,32.62
2022-08-14T18:32:31.808Z,32.68
2022-08-14T18:34:58.448Z,32.72
2022-08-14T18:37:25.772Z,33.04
2022-08-14T18:40:02.775Z,33.17
2022-08-14T18:42:41.360Z,33.36
2022-08-14T18:45:18.643Z,33.75
2022-08-14T18:48:16.054Z,34.16
2022-08-14T18:50:52.928Z,34.90
2022-08-14T18:53:24.445Z,34.79
2022-08-14T18:56:09.690Z,35.30
2022-08-14T18:58:58.447Z,35.57
2022-08-14T19:01:31.715Z,35.92
2022-08-14T19:04:01.239Z,36.34
2022-08-14T19:06:43.157Z,37.01
2022-08-14T19:09:50.960Z,37.60
2022-08-14T19:13:00.203Z,38.38
2022-08-14T19:15:28.729Z,38.24
2022-08-14T19:18:14.475Z,38.78
2022-08-14T19:20:49.042Z,38.61
2022-08-14T19:23:23.070Z,38.96
2022-08-14T19:25:58.817Z,39.01
2022-08-14T19:28:31.641Z,39.44
2022-08-14T19:31:37.082Z,39.13
2022-08-14T19:34:09.003Z,39.54
2022-08-14T19:37:04.561Z,39.79
2022-08-14T19:39:48.141Z,39.62
2022-08-14T19:42:28.196Z,40.06
2022-08-14T19:44:57.951Z,40.63
2022-08-14T19:47:41.124Z,40.89
2022-08-14T19:50:37.998Z,40.83
2022-08-14T19:53:11.283Z,41.04
2022-08-14T19:55:45.467Z,41.53
2022-08-14T19:58:13.182Z,41.95
2022-08-14T20:00:52.038Z,42.04
2022-08-14T20:03:23.463Z,41.80
2022-08-14T20:06:00.575Z,42.77
2022-08-14T20:10:59.376Z,42.68
2022-08-14T20:11:58.508Z,43.45
2022-08-14T20:14:29.494Z,43.35
2022-08-14T20:17:06.297Z,43.84
2022-08-14T20:19:37.379Z,44.86
2022-08-14T20:22:36.537Z,44.56
2022-08-14T20:24:54.252Z,45.03
2022-08-14T20:27:34.082Z,45.08
2022-08-14T20:30:29.076Z,45.00
2022-08-14T20:32:57.895Z,45.21
2022-08-14T20:35:36.213Z,45.36
2022-08-14T20:38:29.398Z,45.40
2022-08-14T20:40:58.897Z,45.51
2022-08-14T20:43:53.713Z,45.93
2022-08-14T20:46:29.897Z,45.62
2022-08-14T20:49:10.935Z,45.88
2022-08-14T20:51:58.622Z,46.06
2022-08-14T20:54:36.289Z,46.97
2022-08-14T20:57:08.931Z,46.74
2022-08-14T20:59:50.213Z,46.80
2022-08-14T21:02:38.707Z,46.92
2022-08-14T21:05:19.625Z,46.53
2022-08-14T21:07:51.194Z,47.18
2022-08-14T21:10:33.207Z,47.45
2022-08-14T21:13:26.373Z,48.16
2022-08-14T21:15:57.621Z,48.18
2022-08-14T21:18:28.616Z,48.43
2022-08-14T21:20:58.146Z,48.53
2022-08-14T21:23:25.201Z,48.51
2022-08-14T21:26:00.139Z,49.17
2022-08-14T21:28:30.189Z,48.87
2022-08-14T21:31:01.571Z,49.43
2022-08-14T21:33:28.816Z,49.21
2022-08-14T21:36:07.598Z,49.78
2022-08-14T21:38:37.323Z,49.97
2022-08-14T21:41:43.335Z,49.93
2022-08-14T21:44:18.038Z,50.35
2022-08-14T21:46:54.474Z,50.76
2022-08-14T21:49:24.142Z,51.08
2022-08-14T21:52:01.001Z,51.17
2022-08-14T21:54:49.377Z,52.15
2022-08-14T21:57:17.257Z,52.04
2022-08-14T21:59:44.747Z,52.64
2022-08-14T22:02:32.268Z,52.69
2022-08-14T22:04:58.902Z,52.96
2022-08-14T22:07:29.271Z,54.02
2022-08-14T22:09:57.320Z,54.16
2022-08-14T22:12:58.608Z,56.54
2022-08-14T22:15:16.316Z,56.58
2022-08-14T22:17:52.259Z,57.79
2022-08-14T22:20:21.185Z,60.05
2022-08-14T22:22:47.850Z,62.22
2022-08-14T22:25:17.337Z,61.17
2022-08-14T22:27:55.855Z,62.57
2022-08-14T22:30:24.507Z,65.36
2022-08-14T22:32:56.546Z,68.41
2022-08-14T22:35:25.519Z,72.85
2022-08-14T22:38:34.765Z,72.27
2022-08-14T22:41:01.756Z,73.43
2022-08-14T22:43:51.589Z,72.48
2022-08-14T22:46:20.800Z,76.48
2022-08-14T22:48:49.128Z,74.59
2022-08-14T22:51:42.463Z,75.32
2022-08-14T22:54:52.179Z,75.87
2022-08-14T22:57:04.163Z,75.15
2022-08-14T22:59:36.682Z,77.27
2022-08-14T23:02:14.339Z,78.61
2022-08-14T23:04:55.285Z,78.81
2022-08-14T23:07:24.761Z,78.61
2022-08-14T23:09:57.846Z,77.57
2022-08-14T23:12:54.244Z,78.51
2022-08-14T23:15:24.497Z,79.23
2022-08-14T23:17:55.723Z,84.67
2022-08-14T23:20:23.232Z,85.12
2022-08-14T23:22:56.969Z,87.72
2022-08-14T23:25:56.845Z,89.93
2022-08-14T23:28:33.901Z,88.45
2022-08-14T23:31:08.472Z,90.17
2022-08-14T23:33:46.236Z,88.25
2022-08-14T23:36:32.064Z,87.72
2022-08-14T23:39:10.182Z,91.11
2022-08-14T23:41:46.588Z,88.76
2022-08-14T23:44:23.536Z,89.45
2022-08-14T23:46:57.195Z,88.59
2022-08-14T23:49:55.489Z,89.67
2022-08-14T23:52:50.757Z,90.49
2022-08-14T23:55:34.297Z,92.08
2022-08-14T23:58:01.129Z,94.44
